Time;durP1;ratioP1;P1;durP2;ratioP2;P2;SDS_P1;SDS_P2;PMS_P1;PMS_P2;Temp;Humidity;BMP_temperature;BMP_pressure;BME280_temperature;BME280_humidity;BME280_pressure;Samples;Min_cycle;Max_cycle;Signal;HPM_P1;HPM_P2
2022/11/19 00:01:19;;;;;;;0.63;0.40;;;5.40;99.90;;;;;;5053118;28;20358;-47
2022/11/19 00:03:46;;;;;;;0.57;0.40;;;5.40;99.90;;;;;;5047792;28;20106;-46
2022/11/19 00:06:23;;;;;;;2.85;0.40;;;5.40;99.90;;;;;;5059744;28;20042;-46
2022/11/19 00:08:51;;;;;;;0.65;0.50;;;5.40;99.90;;;;;;5051255;28;20489;-46
2022/11/19 00:14:11;;;;;;;1.35;0.30;;;5.40;99.90;;;;;;5053475;28;20041;-46
2022/11/19 00:16:38;;;;;;;2.60;0.35;;;5.40;99.90;;;;;;5052725;28;20039;-46
2022/11/19 00:19:05;;;;;;;1.83;0.50;;;5.40;99.90;;;;;;5052522;28;20044;-46
2022/11/19 00:21:32;;;;;;;1.80;0.40;;;5.40;99.90;;;;;;5052102;28;20049;-47
2022/11/19 00:23:58;;;;;;;2.30;0.75;;;5.40;99.90;;;;;;5053028;28;20049;-46
2022/11/19 00:26:25;;;;;;;1.50;0.47;;;5.40;99.90;;;;;;5045476;28;20036;-48
2022/11/19 00:28:53;;;;;;;3.45;0.50;;;5.40;99.90;;;;;;5046603;28;20111;-46
2022/11/19 00:31:19;;;;;;;2.60;0.77;;;5.40;99.90;;;;;;5055777;28;20045;-47
2022/11/19 00:33:49;;;;;;;3.78;0.60;;;5.40;99.90;;;;;;5035335;28;20072;-46
2022/11/19 00:36:16;;;;;;;0.98;0.40;;;5.40;99.90;;;;;;5057755;28;20064;-47
2022/11/19 00:38:43;;;;;;;1.13;0.30;;;5.40;99.90;;;;;;5050981;28;20443;-46
2022/11/19 00:41:10;;;;;;;1.30;0.45;;;5.40;99.90;;;;;;5052153;28;20123;-47
2022/11/19 00:43:46;;;;;;;1.35;0.45;;;5.40;99.90;;;;;;5043204;28;20048;-47
2022/11/19 00:46:19;;;;;;;1.35;0.50;;;5.40;99.90;;;;;;5058475;28;20098;-47
2022/11/19 00:48:47;;;;;;;0.70;0.30;;;5.40;99.90;;;;;;5049023;28;20048;-48
2022/11/19 00:51:15;;;;;;;2.08;0.35;;;5.40;99.90;;;;;;5054971;28;20037;-47
2022/11/19 00:53:42;;;;;;;2.10;0.45;;;5.30;99.90;;;;;;5072245;28;20272;-47
2022/11/19 00:56:12;;;;;;;0.90;0.38;;;5.20;99.90;;;;;;5072603;28;20512;-47
2022/11/19 00:58:40;;;;;;;0.63;0.60;;;5.20;99.90;;;;;;5062626;28;20102;-47
2022/11/19 01:01:08;;;;;;;1.20;0.47;;;5.20;99.90;;;;;;5054768;28;20049;-47
2022/11/19 01:03:36;;;;;;;3.70;0.88;;;5.10;99.90;;;;;;5033631;28;20398;-48
2022/11/19 01:06:03;;;;;;;3.17;1.27;;;5.10;99.90;;;;;;5047363;28;20048;-47
2022/11/19 01:08:30;;;;;;;1.58;0.70;;;5.10;99.90;;;;;;5052537;28;20068;-47
2022/11/19 01:11:07;;;;;;;3.40;0.85;;;5.00;99.90;;;;;;5051510;28;20087;-47
2022/11/19 01:13:35;;;;;;;1.38;0.60;;;5.00;99.90;;;;;;5046737;28;20543;-47
2022/11/19 01:16:09;;;;;;;4.40;1.45;;;4.90;99.90;;;;;;5069779;28;20064;-47
2022/11/19 01:18:37;;;;;;;2.30;1.08;;;4.90;99.90;;;;;;5070694;28;20136;-48
2022/11/19 01:21:06;;;;;;;2.53;0.88;;;4.90;99.90;;;;;;5072255;28;20040;-46
2022/11/19 01:23:33;;;;;;;1.90;1.10;;;4.90;99.90;;;;;;5040671;28;20076;-47
2022/11/19 01:26:01;;;;;;;3.08;1.10;;;4.90;99.90;;;;;;5055911;28;20080;-47
2022/11/19 01:28:29;;;;;;;2.42;1.30;;;4.90;99.90;;;;;;5051794;28;20069;-48
2022/11/19 01:30:56;;;;;;;3.03;1.10;;;4.80;99.90;;;;;;5052457;28;20044;-47
2022/11/19 01:33:23;;;;;;;1.80;0.90;;;4.80;99.90;;;;;;5050733;28;20066;-48
2022/11/19 01:35:54;;;;;;;0.98;0.60;;;4.80;99.90;;;;;;5052467;28;20084;-47
2022/11/19 01:38:21;;;;;;;1.20;0.50;;;4.80;99.90;;;;;;5050771;28;20072;-47
2022/11/19 01:40:48;;;;;;;0.95;0.47;;;4.80;99.90;;;;;;5072581;28;20129;-47
2022/11/19 01:43:15;;;;;;;0.65;0.38;;;4.80;99.90;;;;;;5070065;28;20090;-47
2022/11/19 01:45:44;;;;;;;2.05;0.40;;;4.80;99.90;;;;;;5053980;28;20569;-46
2022/11/19 01:48:24;;;;;;;1.08;0.60;;;4.90;99.90;;;;;;5042648;28;20083;-47
2022/11/19 01:50:58;;;;;;;1.20;0.80;;;4.90;99.90;;;;;;5071423;28;20106;-48
2022/11/19 01:53:29;;;;;;;4.60;2.25;;;4.90;99.90;;;;;;5056712;28;20127;-47
2022/11/19 01:56:02;;;;;;;6.15;2.95;;;4.80;99.90;;;;;;5051889;28;20053;-47
2022/11/19 01:58:43;;;;;;;6.28;2.90;;;4.90;99.90;;;;;;5066294;28;20052;-47
2022/11/19 02:01:10;;;;;;;5.55;2.90;;;4.90;99.90;;;;;;5053922;28;20373;-48
2022/11/19 02:03:38;;;;;;;4.10;2.10;;;4.90;99.90;;;;;;5055085;28;20486;-47
2022/11/19 02:06:06;;;;;;;4.32;2.25;;;4.80;99.90;;;;;;5048763;28;20469;-47
2022/11/19 02:08:35;;;;;;;3.03;1.48;;;4.80;99.90;;;;;;5063705;28;20041;-49
2022/11/19 02:11:16;;;;;;;2.88;1.58;;;4.80;99.90;;;;;;5070674;28;20438;-46
2022/11/19 02:14:14;;;;;;;3.05;1.73;;;4.80;99.90;;;;;;5031345;28;20076;-47
2022/11/19 02:16:56;;;;;;;7.10;3.33;;;4.80;99.90;;;;;;5033090;28;20568;-47
2022/11/19 02:19:37;;;;;;;3.85;1.17;;;4.80;99.90;;;;;;5039573;28;20046;-49
2022/11/19 02:22:29;;;;;;;0.52;0.40;;;4.80;99.90;;;;;;5053676;28;20497;-47
2022/11/19 02:25:17;;;;;;;1.48;0.50;;;4.70;99.90;;;;;;5048735;28;20080;-47
2022/11/19 02:28:11;;;;;;;1.10;0.63;;;4.70;99.90;;;;;;5037972;28;20448;-47
2022/11/19 02:30:42;;;;;;;2.97;0.70;;;4.60;99.90;;;;;;5049721;28;20785;-46
2022/11/19 02:33:24;;;;;;;1.40;0.70;;;4.60;99.90;;;;;;5044247;28;20478;-46
2022/11/19 02:36:18;;;;;;;2.58;0.63;;;4.60;99.90;;;;;;5055226;28;20531;-46
2022/11/19 02:38:55;;;;;;;0.80;0.50;;;4.60;99.90;;;;;;5056681;28;20124;-46
2022/11/19 02:41:34;;;;;;;1.27;0.40;;;4.60;99.90;;;;;;5061253;28;20127;-47
2022/11/19 02:47:07;;;;;;;0.60;0.32;;;4.50;99.90;;;;;;5046544;28;20053;-47
2022/11/19 02:49:39;;;;;;;0.85;0.50;;;4.40;99.90;;;;;;5070429;28;20110;-48
2022/11/19 02:52:07;;;;;;;3.03;0.60;;;4.50;99.90;;;;;;5069997;28;20045;-47
2022/11/19 02:54:34;;;;;;;0.88;0.60;;;4.50;99.90;;;;;;5070504;28;20404;-46
2022/11/19 02:57:01;;;;;;;0.32;0.30;;;4.50;99.90;;;;;;5064490;28;20081;-47
2022/11/19 03:05:34;;;;;;;1.30;0.50;;;4.50;99.90;;;;;;5054604;28;20072;-46
2022/11/19 03:08:01;;;;;;;0.40;0.40;;;4.40;99.90;;;;;;5050874;28;20478;-46
2022/11/19 03:10:38;;;;;;;0.65;0.50;;;4.40;99.90;;;;;;5050484;28;20067;-47
2022/11/19 03:16:41;;;;;;;1.02;0.60;;;4.50;99.90;;;;;;5048720;28;20072;-47
2022/11/19 03:19:22;;;;;;;2.72;0.80;;;4.50;99.90;;;;;;5050950;28;20033;-46
2022/11/19 03:21:59;;;;;;;1.35;0.68;;;4.50;99.90;;;;;;5050119;28;20072;-47
2022/11/19 03:28:16;;;;;;;0.77;0.50;;;4.50;99.90;;;;;;5047061;28;20084;-46
2022/11/19 03:30:45;;;;;;;2.03;0.98;;;4.50;99.90;;;;;;5068610;28;20037;-47
2022/11/19 03:33:20;;;;;;;1.52;0.95;;;4.50;99.90;;;;;;5061794;28;20044;-47
2022/11/19 03:35:56;;;;;;;2.33;1.20;;;4.50;99.90;;;;;;5055388;28;20037;-47
2022/11/19 03:38:30;;;;;;;2.45;1.30;;;4.60;99.90;;;;;;5056476;28;20486;-47
2022/11/19 03:40:57;;;;;;;1.20;0.82;;;4.50;99.90;;;;;;5046191;28;20457;-46
2022/11/19 03:43:25;;;;;;;;;;;4.50;99.90;;;;;;5052951;28;20048;-47
2022/11/19 03:45:54;;;;;;;1.25;0.85;;;4.50;99.90;;;;;;5037545;28;20497;-46
2022/11/19 03:48:22;;;;;;;2.88;0.90;;;4.50;99.90;;;;;;5045573;28;20559;-47
2022/11/19 03:51:07;;;;;;;1.80;0.80;;;4.50;99.90;;;;;;5053566;28;20045;-47
2022/11/19 03:53:34;;;;;;;1.92;1.20;;;4.50;99.90;;;;;;5055740;28;20052;-46
2022/11/19 03:56:04;;;;;;;1.88;1.10;;;4.50;99.90;;;;;;5052647;28;20079;-47
2022/11/19 03:58:37;;;;;;;1.80;0.98;;;4.50;99.90;;;;;;5047480;28;20041;-46
2022/11/19 04:01:04;;;;;;;1.20;0.80;;;4.40;99.90;;;;;;5056960;28;20049;-47
2022/11/19 04:03:31;;;;;;;1.25;0.80;;;4.40;99.90;;;;;;5040217;28;20049;-47
2022/11/19 04:05:57;;;;;;;1.70;0.70;;;4.40;99.90;;;;;;5037281;28;20457;-46
2022/11/19 04:08:24;;;;;;;2.35;1.00;;;5.30;99.90;;;;;;5047520;28;20067;-47
2022/11/19 04:10:51;;;;;;;1.80;0.90;;;4.40;99.90;;;;;;5056834;28;20099;-47
2022/11/19 04:13:18;;;;;;;1.88;1.20;;;4.40;99.90;;;;;;5038631;28;20076;-46
2022/11/19 04:15:45;;;;;;;1.90;1.00;;;4.40;99.90;;;;;;5036465;28;20056;-49
2022/11/19 04:18:11;;;;;;;3.08;0.95;;;4.40;99.90;;;;;;5054515;28;20520;-46
2022/11/19 04:20:38;;;;;;;6.00;2.80;;;4.40;99.90;;;;;;5056767;28;20053;-46
2022/11/19 04:23:05;;;;;;;7.07;3.55;;;4.50;99.90;;;;;;5037477;28;20060;-47
2022/11/19 04:25:31;;;;;;;8.20;4.22;;;4.60;99.90;;;;;;5040689;28;20065;-46
2022/11/19 04:27:59;;;;;;;9.65;4.72;;;4.70;99.90;;;;;;5045371;28;20034;-47
2022/11/19 04:30:25;;;;;;;6.47;3.80;;;4.80;99.90;;;;;;5036873;28;20130;-48
2022/11/19 04:32:52;;;;;;;3.20;1.65;;;4.80;99.90;;;;;;5043330;28;20041;-46
2022/11/19 04:35:20;;;;;;;1.25;0.60;;;4.70;99.90;;;;;;5045250;28;20069;-47
2022/11/19 04:37:48;;;;;;;0.85;0.45;;;4.60;99.90;;;;;;5034165;28;20128;-46
2022/11/19 04:40:14;;;;;;;0.50;0.30;;;4.40;99.90;;;;;;5049336;28;20075;-46
2022/11/19 04:42:42;;;;;;;2.92;0.50;;;4.40;99.90;;;;;;5033148;28;20506;-47
2022/11/19 04:45:09;;;;;;;3.45;0.52;;;4.40;99.90;;;;;;5039195;28;20586;-46
2022/11/19 04:47:36;;;;;;;1.52;0.60;;;4.40;99.90;;;;;;5050880;28;20076;-46
2022/11/19 04:50:03;;;;;;;;;;;4.40;99.90;;;;;;5052282;28;20073;-47
2022/11/19 04:52:31;;;;;;;0.88;0.40;;;4.30;99.90;;;;;;5053441;28;19951;-46
2022/11/19 04:55:05;;;;;;;2.25;0.47;;;4.30;99.90;;;;;;5038760;28;20045;-46
2022/11/19 04:57:31;;;;;;;3.17;0.60;;;4.30;99.90;;;;;;5041346;28;20076;-47
2022/11/19 04:59:58;;;;;;;0.50;0.50;;;4.30;99.90;;;;;;5032574;28;20402;-46
2022/11/19 05:02:25;;;;;;;0.82;0.50;;;4.30;99.90;;;;;;5036241;28;20037;-48
2022/11/19 05:04:51;;;;;;;2.40;0.35;;;4.30;99.90;;;;;;5045320;28;20068;-47
2022/11/19 05:07:18;;;;;;;0.63;0.40;;;4.30;99.90;;;;;;5043158;28;20033;-47
2022/11/19 05:09:45;;;;;;;1.73;0.50;;;4.20;99.90;;;;;;5047485;28;20103;-46
2022/11/19 05:12:12;;;;;;;1.45;0.38;;;4.20;99.90;;;;;;5050596;28;20041;-47
2022/11/19 05:14:38;;;;;;;1.50;0.65;;;4.30;99.90;;;;;;5043615;28;20437;-48
2022/11/19 05:17:05;;;;;;;2.17;0.90;;;4.30;99.90;;;;;;5041198;28;20049;-48
2022/11/19 05:19:32;;;;;;;1.10;0.70;;;4.30;99.90;;;;;;5047068;28;20409;-46
2022/11/19 05:21:59;;;;;;;1.45;0.70;;;4.40;99.90;;;;;;5051527;28;20612;-47
2022/11/19 05:24:25;;;;;;;1.70;1.15;;;4.40;99.90;;;;;;5041876;28;20049;-47
2022/11/19 05:26:52;;;;;;;1.92;1.23;;;4.50;99.90;;;;;;5032874;28;20145;-46
2022/11/19 05:29:19;;;;;;;1.65;1.08;;;4.50;99.90;;;;;;5035971;28;20103;-47
2022/11/19 05:31:46;;;;;;;2.70;1.75;;;4.60;99.90;;;;;;5051466;28;20041;-47
2022/11/19 05:34:12;;;;;;;3.28;1.70;;;4.50;99.90;;;;;;5048408;28;20056;-47
2022/11/19 05:36:39;;;;;;;4.07;1.50;;;4.60;99.90;;;;;;5052395;28;20080;-46
2022/11/19 05:39:06;;;;;;;3.47;1.83;;;4.60;99.90;;;;;;5040785;28;20124;-48
2022/11/19 05:41:33;;;;;;;2.25;1.60;;;4.60;99.90;;;;;;5052242;28;20037;-47
2022/11/19 05:43:59;;;;;;;6.30;2.45;;;4.60;99.90;;;;;;5050545;28;20720;-47
2022/11/19 05:46:26;;;;;;;6.85;2.75;;;4.50;99.90;;;;;;5045827;28;20037;-47
2022/11/19 05:48:53;;;;;;;8.38;3.75;;;4.50;99.90;;;;;;5033382;28;20041;-47
2022/11/19 05:51:20;;;;;;;5.93;3.22;;;4.40;99.90;;;;;;5049411;28;20079;-46
2022/11/19 05:53:46;;;;;;;4.55;2.17;;;4.30;99.90;;;;;;5037967;28;20461;-46
2022/11/19 05:56:13;;;;;;;4.97;2.80;;;4.30;99.90;;;;;;5031210;28;20049;-48
2022/11/19 05:58:40;;;;;;;6.57;2.80;;;4.30;99.90;;;;;;5043136;28;20440;-46
2022/11/19 06:01:07;;;;;;;6.57;2.10;;;4.40;99.90;;;;;;5044189;28;20073;-47
2022/11/19 06:03:33;;;;;;;1.58;1.15;;;4.40;99.90;;;;;;5045222;28;20037;-47
2022/11/19 06:06:00;;;;;;;7.68;2.25;;;4.40;99.90;;;;;;5048084;28;20041;-46
2022/11/19 06:08:27;;;;;;;14.40;4.78;;;4.40;99.90;;;;;;5046859;28;20041;-47
2022/11/19 06:10:54;;;;;;;13.65;4.50;;;4.40;99.90;;;;;;5041496;28;20827;-47
2022/11/19 06:13:20;;;;;;;8.82;4.22;;;4.40;99.90;;;;;;5034435;28;20540;-47
2022/11/19 06:15:47;;;;;;;7.15;2.00;;;4.40;99.90;;;;;;5043265;28;20065;-47
2022/11/19 06:18:14;;;;;;;3.30;1.52;;;4.40;99.90;;;;;;5043195;28;20112;-47
2022/11/19 06:20:41;;;;;;;5.72;2.30;;;4.40;99.90;;;;;;5048545;28;20439;-47
2022/11/19 06:23:08;;;;;;;4.15;2.80;;;4.50;99.90;;;;;;5041676;28;20096;-46
2022/11/19 06:25:34;;;;;;;3.75;2.70;;;4.50;99.90;;;;;;5042610;28;20127;-46
2022/11/19 06:28:01;;;;;;;2.72;1.60;;;4.50;99.90;;;;;;5047481;28;20464;-46
2022/11/19 06:30:28;;;;;;;2.50;0.68;;;4.60;99.90;;;;;;5051099;28;20041;-47
2022/11/19 06:32:54;;;;;;;3.28;0.80;;;4.50;99.90;;;;;;5048787;28;20493;-46
2022/11/19 06:35:21;;;;;;;0.80;0.60;;;4.50;99.90;;;;;;5040190;28;20076;-46
2022/11/19 06:37:48;;;;;;;1.85;0.70;;;4.40;99.90;;;;;;5045485;28;20076;-46
2022/11/19 06:40:14;;;;;;;1.00;0.50;;;4.40;99.90;;;;;;5050666;28;20497;-47
2022/11/19 06:42:41;;;;;;;0.77;0.60;;;4.40;99.90;;;;;;5031281;28;20077;-47
2022/11/19 06:45:13;;;;;;;1.05;0.95;;;4.30;99.90;;;;;;5023943;28;20116;-48
2022/11/19 06:47:40;;;;;;;;;;;4.40;99.90;;;;;;5052840;28;20068;-46
2022/11/19 06:50:09;;;;;;;4.00;1.75;;;4.40;99.90;;;;;;5034020;28;19924;-47
2022/11/19 06:52:35;;;;;;;0.70;0.60;;;4.50;99.90;;;;;;5052904;28;20480;-46
2022/11/19 06:55:03;;;;;;;1.00;0.70;;;4.50;99.90;;;;;;5043211;28;20583;-46
2022/11/19 06:57:30;;;;;;;3.90;1.92;;;4.50;99.90;;;;;;5065725;28;20119;-46
2022/11/19 06:59:56;;;;;;;2.78;1.70;;;4.50;99.90;;;;;;5043060;28;20053;-46
2022/11/19 07:02:23;;;;;;;2.78;1.55;;;4.50;99.90;;;;;;5051248;28;20099;-47
2022/11/19 07:04:50;;;;;;;2.08;1.25;;;4.60;99.90;;;;;;5044954;28;20107;-47
2022/11/19 07:07:16;;;;;;;1.95;1.30;;;4.60;99.90;;;;;;5062972;28;20091;-46
2022/11/19 07:09:43;;;;;;;2.58;1.63;;;4.60;99.90;;;;;;5045582;28;20051;-48
2022/11/19 07:12:10;;;;;;;2.15;1.50;;;4.70;99.90;;;;;;5048422;28;20071;-47
2022/11/19 07:14:37;;;;;;;1.83;1.50;;;4.70;99.90;;;;;;5051210;28;20069;-47
2022/11/19 07:17:05;;;;;;;2.17;1.63;;;4.70;99.90;;;;;;5031455;28;20041;-46
2022/11/19 07:19:31;;;;;;;3.05;1.70;;;4.80;99.90;;;;;;5036469;28;20045;-46
2022/11/19 07:21:58;;;;;;;2.88;1.88;;;4.80;99.90;;;;;;5050781;28;20068;-48
2022/11/19 07:24:25;;;;;;;3.63;2.13;;;4.80;99.90;;;;;;5040765;28;20045;-47
2022/11/19 07:26:53;;;;;;;4.47;2.13;;;4.90;99.90;;;;;;5046107;28;20041;-49
2022/11/19 07:29:20;;;;;;;2.90;1.77;;;4.90;99.90;;;;;;5037814;28;20128;-47
2022/11/19 07:31:49;;;;;;;2.78;1.65;;;5.00;99.90;;;;;;5050482;28;20489;-47
2022/11/19 07:34:16;;;;;;;3.40;1.90;;;5.00;99.90;;;;;;5038716;28;20080;-46
2022/11/19 07:36:44;;;;;;;;;;;5.00;99.90;;;;;;5031012;28;20127;-47
2022/11/19 07:39:11;;;;;;;3.25;1.73;;;5.00;99.90;;;;;;5030626;28;20360;-47
2022/11/19 07:44:23;;;;;;;3.70;2.00;;;5.10;99.90;;;;;;5037722;28;20547;-46
2022/11/19 07:46:50;;;;;;;13.82;4.57;;;5.10;99.90;;;;;;5050467;28;20037;-46
2022/11/19 07:49:18;;;;;;;4.45;1.95;;;5.00;99.90;;;;;;5035439;28;20041;-47
2022/11/19 07:51:45;;;;;;;2.72;2.00;;;5.10;99.90;;;;;;5030333;28;20053;-46
2022/11/19 07:54:13;;;;;;;4.47;2.47;;;5.20;99.90;;;;;;5039054;28;20033;-46
2022/11/19 07:56:40;;;;;;;3.97;2.38;;;5.30;99.90;;;;;;5036955;28;20045;-47
2022/11/19 07:59:07;;;;;;;2.70;1.88;;;5.40;99.90;;;;;;5030143;28;20103;-46
2022/11/19 08:01:34;;;;;;;4.25;2.42;;;5.40;99.90;;;;;;5034184;28;20568;-47
2022/11/19 08:04:01;;;;;;;14.60;6.43;;;5.50;99.90;;;;;;5051464;28;20521;-46
2022/11/19 08:06:29;;;;;;;11.07;5.10;;;5.50;99.90;;;;;;5057085;28;20550;-47
2022/11/19 08:08:55;;;;;;;6.40;2.92;;;5.50;99.90;;;;;;5043812;28;20505;-46
2022/11/19 08:11:23;;;;;;;4.60;2.75;;;5.60;99.90;;;;;;5049884;28;20356;-47
2022/11/19 08:13:50;;;;;;;;;;;5.60;99.90;;;;;;5049124;28;20033;-46
2022/11/19 08:18:11;;;;;;;7.80;2.60;;;5.70;99.90;;;;;;5035975;28;20290;-47
2022/11/19 08:19:08;;;;;;;5.50;2.90;;;5.70;99.90;;;;;;5063227;28;20058;-46
2022/11/19 08:21:38;;;;;;;4.32;3.15;;;5.70;99.90;;;;;;5053401;28;20119;-46
2022/11/19 08:24:06;;;;;;;7.22;2.90;;;5.70;99.90;;;;;;5060319;28;20052;-49
2022/11/19 08:26:33;;;;;;;4.68;3.03;;;5.80;99.90;;;;;;5063688;28;20058;-48
2022/11/19 08:29:00;;;;;;;4.68;2.30;;;5.80;99.90;;;;;;5059867;28;20044;-47
2022/11/19 08:31:26;;;;;;;3.83;1.92;;;5.80;99.90;;;;;;5060197;28;20097;-49
2022/11/19 08:33:53;;;;;;;4.22;2.80;;;5.90;99.90;;;;;;5061803;28;20048;-46
2022/11/19 08:36:20;;;;;;;4.15;2.97;;;5.90;99.90;;;;;;5061016;28;20094;-47
2022/11/19 08:38:47;;;;;;;7.88;3.13;;;6.00;99.90;;;;;;5062095;28;20040;-48
2022/11/19 08:44:02;;;;;;;8.60;4.65;;;6.10;99.90;;;;;;5055870;28;20044;-47
2022/11/19 08:46:29;;;;;;;13.40;6.25;;;6.30;99.90;;;;;;5058263;28;20098;-47
2022/11/19 08:48:56;;;;;;;13.80;7.07;;;6.30;99.90;;;;;;5061320;28;20280;-46
2022/11/19 08:51:23;;;;;;;16.98;8.52;;;6.40;99.90;;;;;;5050336;28;20044;-47
2022/11/19 08:53:53;;;;;;;13.80;7.57;;;6.50;99.90;;;;;;5053310;28;20037;-48
2022/11/19 08:56:20;;;;;;;17.77;9.20;;;6.50;99.90;;;;;;5039142;28;20091;-47
2022/11/19 08:58:47;;;;;;;18.60;9.77;;;6.60;99.90;;;;;;5038260;28;20036;-46
2022/11/19 09:01:20;;;;;;;;;;;6.60;99.90;;;;;;5038275;28;20553;-49
2022/11/19 09:03:47;;;;;;;14.43;8.55;;;6.70;99.90;;;;;;5051610;28;19925;-47
2022/11/19 09:06:14;;;;;;;15.50;8.95;;;6.70;99.90;;;;;;5037532;28;20034;-46
2022/11/19 09:08:41;;;;;;;16.17;9.70;;;6.80;99.90;;;;;;5052724;28;20505;-47
2022/11/19 09:11:11;;;;;;;17.48;9.57;;;6.80;99.90;;;;;;5036460;28;20107;-46
2022/11/19 09:13:38;;;;;;;17.48;9.73;;;6.80;99.90;;;;;;5045329;28;20438;-47
2022/11/19 09:16:05;;;;;;;18.10;9.63;;;6.80;99.90;;;;;;5043544;28;20049;-48
2022/11/19 09:18:33;;;;;;;15.80;9.45;;;6.80;99.90;;;;;;5052598;28;20520;-48
2022/11/19 09:20:59;;;;;;;14.68;9.05;;;6.90;99.90;;;;;;5034346;28;20095;-48
2022/11/19 09:23:26;;;;;;;14.55;7.97;;;6.90;99.90;;;;;;5030536;28;20453;-47
2022/11/19 09:25:54;;;;;;;20.92;11.65;;;6.90;99.90;;;;;;5047590;28;20041;-47
2022/11/19 09:28:21;;;;;;;17.73;10.27;;;7.00;99.90;;;;;;5033235;28;20099;-49
2022/11/19 09:31:00;;;;;;;17.75;10.00;;;7.10;99.90;;;;;;5038270;28;20047;-47
2022/11/19 09:33:29;;;;;;;17.35;9.40;;;7.10;99.90;;;;;;5051225;28;20481;-48
2022/11/19 09:35:56;;;;;;;17.10;9.48;;;7.20;99.90;;;;;;5052920;28;20076;-47
2022/11/19 09:38:22;;;;;;;18.17;9.57;;;7.30;99.90;;;;;;5045666;28;20502;-49
2022/11/19 09:40:53;;;;;;;17.63;8.90;;;7.30;99.90;;;;;;5041158;28;20073;-46
2022/11/19 09:43:20;;;;;;;16.65;9.40;;;7.40;99.90;;;;;;5031173;28;20506;-47
2022/11/19 09:45:56;;;;;;;;;;;7.50;99.90;;;;;;5050050;28;20048;-48
2022/11/19 09:48:34;;;;;;;18.95;9.15;;;7.60;99.90;;;;;;5047597;28;19925;-47
2022/11/19 09:51:13;;;;;;;16.92;9.55;;;7.60;99.90;;;;;;5043209;28;20056;-49
2022/11/19 09:53:50;;;;;;;16.58;9.70;;;7.80;99.90;;;;;;5040977;28;20103;-48
2022/11/19 09:56:26;;;;;;;14.43;8.75;;;7.90;99.90;;;;;;5034549;28;20041;-48
2022/11/19 09:58:55;;;;;;;14.43;8.13;;;7.90;99.90;;;;;;5057889;28;20048;-48
2022/11/19 10:01:22;;;;;;;13.15;7.53;;;8.00;99.90;;;;;;5051427;28;20098;-47
2022/11/19 10:03:52;;;;;;;13.38;6.50;;;8.10;99.90;;;;;;5056581;28;20041;-47
2022/11/19 10:06:26;;;;;;;12.50;7.88;;;8.10;99.90;;;;;;5061235;28;20044;-47
2022/11/19 10:09:32;;;;;;;13.18;7.70;;;8.10;99.90;;;;;;5056498;28;20040;-48
2022/11/19 10:12:08;;;;;;;13.48;6.78;;;8.20;99.90;;;;;;5024695;28;20058;-47
2022/11/19 10:14:46;;;;;;;12.52;6.97;;;8.10;99.90;;;;;;5055659;28;20086;-47
2022/11/19 10:17:51;;;;;;;12.32;6.88;;;8.00;99.90;;;;;;5045774;28;20045;-46
2022/11/19 10:20:49;;;;;;;13.57;6.70;;;8.00;99.90;;;;;;5048060;28;20040;-50
2022/11/19 10:23:41;;;;;;;11.18;6.63;;;7.90;99.90;;;;;;5050087;28;20075;-47
2022/11/19 10:26:13;;;;;;;12.23;6.90;;;7.80;99.90;;;;;;5047441;28;20037;-49
2022/11/19 10:28:48;;;;;;;14.15;8.07;;;7.70;99.90;;;;;;5050962;28;20045;-49
2022/11/19 10:31:42;;;;;;;11.32;7.38;;;7.80;99.90;;;;;;5050043;28;20056;-47
2022/11/19 10:34:29;;;;;;;17.13;8.25;;;7.90;99.90;;;;;;5040903;28;20480;-52
2022/11/19 10:37:29;;;;;;;13.60;7.15;;;7.90;99.90;;;;;;5041557;28;20482;-47
2022/11/19 10:40:10;;;;;;;12.20;6.60;;;7.80;99.90;;;;;;5038881;28;20401;-48
2022/11/19 10:42:46;;;;;;;12.10;6.82;;;7.80;99.90;;;;;;5048039;28;20040;-47
2022/11/19 10:45:14;;;;;;;12.10;6.88;;;7.70;99.90;;;;;;5050343;28;20099;-47
2022/11/19 10:48:17;;;;;;;13.55;7.40;;;7.70;99.90;;;;;;5050328;28;20041;-47
2022/11/19 10:50:44;;;;;;;11.30;7.03;;;7.50;99.90;;;;;;5048736;28;20033;-47
2022/11/19 10:53:21;;;;;;;12.10;7.10;;;7.50;99.90;;;;;;5049824;28;20083;-46
2022/11/19 10:55:51;;;;;;;15.18;7.57;;;7.50;99.90;;;;;;5037264;28;20536;-48
2022/11/19 10:58:25;;;;;;;13.25;7.28;;;7.50;99.90;;;;;;5033726;28;20075;-48
2022/11/19 11:00:54;;;;;;;12.18;7.28;;;7.60;99.90;;;;;;5043060;28;21891;-48
2022/11/19 11:03:27;;;;;;;12.70;7.20;;;7.70;99.90;;;;;;5049392;28;20465;-49
2022/11/19 11:06:04;;;;;;;10.55;6.32;;;7.80;99.90;;;;;;5038375;28;20534;-46
2022/11/19 11:08:31;;;;;;;12.43;7.07;;;8.00;99.90;;;;;;5042883;28;20394;-47
2022/11/19 11:10:59;;;;;;;12.35;6.53;;;8.10;99.90;;;;;;5035977;28;20705;-47
2022/11/19 11:16:41;;;;;;;17.20;7.18;;;8.00;99.90;;;;;;4986506;28;20439;-47
2022/11/19 11:19:17;;;;;;;10.05;6.00;;;7.90;99.90;;;;;;5056256;28;20083;-47
2022/11/19 11:21:49;;;;;;;9.45;5.72;;;7.90;99.90;;;;;;5059255;28;20045;-48
2022/11/19 11:24:16;;;;;;;9.85;6.03;;;8.00;99.90;;;;;;5050966;28;20042;-47
2022/11/19 11:26:43;;;;;;;9.73;5.72;;;8.10;99.90;;;;;;5058860;28;20055;-49
2022/11/19 11:29:13;;;;;;;12.80;6.50;;;8.10;99.90;;;;;;5050421;28;20408;-47
2022/11/19 11:31:45;;;;;;;10.25;5.80;;;8.30;99.90;;;;;;5055940;28;20123;-48
2022/11/19 11:34:36;;;;;;;14.43;6.38;;;8.20;99.90;;;;;;5046232;28;20082;-48
2022/11/19 11:37:05;;;;;;;10.98;6.15;;;8.30;99.90;;;;;;5060367;28;20071;-47
2022/11/19 11:39:38;;;;;;;9.50;6.13;;;8.40;99.90;;;;;;5055839;28;20065;-48
2022/11/19 11:42:11;;;;;;;11.10;5.72;;;8.40;99.90;;;;;;5048812;28;20459;-46
2022/11/19 11:44:56;;;;;;;12.35;6.00;;;8.40;99.90;;;;;;5055299;28;20068;-47
2022/11/19 11:47:28;;;;;;;9.63;5.75;;;8.50;99.90;;;;;;5051973;28;20069;-48
2022/11/19 11:50:06;;;;;;;8.88;5.13;;;8.50;99.90;;;;;;5051141;28;20044;-47
2022/11/19 11:52:40;;;;;;;11.95;4.78;;;8.50;99.90;;;;;;5051056;28;20045;-47
2022/11/19 11:55:22;;;;;;;7.75;4.63;;;8.50;99.90;;;;;;5037867;28;20076;-48
2022/11/19 11:57:54;;;;;;;8.80;5.30;;;8.60;99.90;;;;;;5049597;28;20067;-47
2022/11/19 12:00:41;;;;;;;10.55;6.07;;;8.70;99.90;;;;;;5034206;28;20164;-47
2022/11/19 12:03:13;;;;;;;10.30;5.78;;;8.70;99.90;;;;;;5061107;28;20037;-48
2022/11/19 12:06:03;;;;;;;10.50;6.35;;;8.70;99.90;;;;;;5054195;28;20733;-47
2022/11/19 12:08:52;;;;;;;13.63;6.90;;;8.60;99.90;;;;;;5046168;28;20064;-48
2022/11/19 12:11:54;;;;;;;11.65;6.60;;;8.70;99.90;;;;;;5054232;28;20385;-48
2022/11/19 12:14:23;;;;;;;11.00;6.80;;;8.80;99.90;;;;;;5002184;28;20049;-48
2022/11/19 12:17:16;;;;;;;10.85;6.40;;;8.80;99.90;;;;;;5058186;28;20048;-49
2022/11/19 12:20:21;;;;;;;11.77;6.00;;;8.80;99.90;;;;;;5061012;28;20051;-47
2022/11/19 12:23:17;;;;;;;12.07;6.15;;;8.80;99.90;;;;;;5045187;28;20063;-46
2022/11/19 12:26:11;;;;;;;10.13;5.78;;;8.80;99.90;;;;;;5059764;28;20037;-47
2022/11/19 12:29:02;;;;;;;9.23;5.57;;;8.90;99.90;;;;;;5053611;28;20041;-47
2022/11/19 12:32:06;;;;;;;8.10;5.18;;;8.90;99.90;;;;;;5056919;22;20123;-50
2022/11/19 12:34:57;;;;;;;9.05;5.10;;;9.00;99.90;;;;;;4960133;28;20042;-49
2022/11/19 12:38:00;;;;;;;9.23;5.05;;;9.10;99.90;;;;;;5027023;28;20032;-50
2022/11/19 12:40:49;;;;;;;8.48;5.15;;;9.30;99.90;;;;;;5038892;28;20501;-51
2022/11/19 12:43:30;;;;;;;10.27;5.18;;;9.40;99.90;;;;;;5017087;28;20046;-51
2022/11/19 12:46:18;;;;;;;8.13;4.97;;;9.50;99.90;;;;;;5008658;28;20066;-51
2022/11/19 12:48:48;;;;;;;8.50;5.05;;;9.50;99.90;;;;;;5012006;28;20073;-48
2022/11/19 12:51:39;;;;;;;7.93;4.95;;;9.50;99.90;;;;;;5012555;28;20384;-49
2022/11/19 12:54:43;;;;;;;7.05;4.60;;;9.50;99.90;;;;;;5009593;28;20062;-49
2022/11/19 12:57:42;;;;;;;6.00;3.95;;;9.50;99.90;;;;;;5012874;28;20053;-49
2022/11/19 13:00:19;;;;;;;5.50;3.67;;;9.50;99.90;;;;;;5021278;28;20437;-49
2022/11/19 13:03:18;;;;;;;4.90;3.45;;;9.50;99.90;;;;;;5020814;28;20104;-49
2022/11/19 13:05:47;;;;;;;5.77;3.67;;;9.50;99.90;;;;;;5026888;28;20073;-49
2022/11/19 13:08:34;;;;;;;8.68;3.70;;;9.50;99.90;;;;;;5017917;28;20480;-49
2022/11/19 13:11:37;;;;;;;5.90;3.60;;;9.60;99.90;;;;;;5020418;28;20045;-50
2022/11/19 13:14:20;;;;;;;4.18;2.90;;;9.60;99.90;;;;;;5023140;28;20628;-51
2022/11/19 13:16:47;;;;;;;5.65;3.58;;;9.60;99.90;;;;;;5023324;28;20065;-48
2022/11/19 13:19:35;;;;;;;5.28;3.55;;;9.60;99.90;;;;;;5022503;28;20045;-48
2022/11/19 13:22:11;;;;;;;6.72;3.33;;;9.40;99.90;;;;;;5013181;28;20084;-50
2022/11/19 13:24:45;;;;;;;5.10;3.17;;;9.40;99.90;;;;;;5009073;28;20072;-50
2022/11/19 13:27:15;;;;;;;9.75;3.58;;;9.50;99.90;;;;;;5013157;28;20100;-51
2022/11/19 13:30:19;;;;;;;5.78;2.65;;;9.60;99.90;;;;;;5007724;28;20127;-48
2022/11/19 13:33:28;;;;;;;4.43;2.83;;;9.70;99.90;;;;;;5006261;28;20050;-53
2022/11/19 13:36:11;;;;;;;3.00;2.20;;;9.80;99.90;;;;;;4960427;28;20054;-49
2022/11/19 13:38:47;;;;;;;4.32;2.70;;;9.90;99.90;;;;;;5005010;28;20050;-50
2022/11/19 13:41:24;;;;;;;8.10;3.00;;;9.80;99.90;;;;;;5013144;28;20077;-50
2022/11/19 13:46:44;;;;;;;5.07;2.63;;;9.60;99.90;;;;;;5005546;28;20037;-52
2022/11/19 13:49:32;;;;;;;5.35;3.22;;;9.50;99.90;;;;;;5011889;28;20072;-48
2022/11/19 13:52:05;;;;;;;4.35;3.20;;;9.50;99.90;;;;;;5012234;28;20081;-50
2022/11/19 13:54:38;;;;;;;5.05;3.30;;;9.50;99.90;;;;;;5005453;28;20061;-50